Terminal Aerodrome Forecast
Issued by NWS

Home | Current Version | Previous Version | Text Only | Print | Product List | Glossary On
Versions: 1 2 3 4 5 6 7 8 9 10 11 12 13 14 15 16 17 18 19
000
FTUS43 KDDC 221040 AAA
TAFHYS
TAF AMD
KHYS 221040Z 2211/2306 15008KT P6SM SKC
      TEMPO 2211/2213 6SM BR
     FM221800 19015G25KT P6SM BKN050
     FM230100 16010KT P6SM VCTS BKN040CB=

USA.gov is the U.S. government's official web portal to all federal, state and local government web resources and services.